Pagina principale
METAR-TAF:

METAR-TAF

Aeroporti :

Aeroporto Modibo Keïta

Bamako, Mali

latitudine: 12-32N, longitudine: 007-57W, altezza: 380 m

Osservazione

Il bollettino è stato emesso 40 minuti fa, alle 12:30 UTC
Vento 9 kt da direzioni variabili
Temperature 32°C
Umidità 7%
Pressione 1017 hPa
Visibilità: 8000 m

METAR: GABS 281230Z VRB09KT 8000 NSC 32/M08 Q1017 NOSIG

Ora: 13:10 (13:10 UTC)

Previsione

Il bollettino è stato emesso 1 ora e 55 minuti fa, alle 11:15 UTC
Previsione valida dal 28 alle 12 UTC al 29 alle 18 UTC
Vento 12 kt da est con raffiche fino a 22 kt
Visibilità: 8000 m
Probabilità 40% :
Temporaneamente
dal 28 alle 16 UTC al 28 alle 23 UTC
Visibilità: 4000 m
polvere diffusa
Probabilità 40% :
Temporaneamente
dal 29 alle 06 UTC al 29 alle 11 UTC
Visibilità: 4000 m
polvere diffusa

TAF: GABS 281115Z 2812/2918 08012G22KT 8000 NSC PROB40 TEMPO 2816/2823 4000 DU PROB40 TEMPO 2906/2911 4000 DU

Osservazioni e previsioni meteorologiche di più di 4000 aeroporti (messaggi METAR e TAF).

Le stazioni disponibili sono rappresentate dai dischi gialli e rossi sulla carta.

Puntare il mouse per vedere il nome della stazione.

Clicca sopra per visualizzare le osservazioni e previsioni meteorologiche.

Per cambiare la mappa : fare clic sui pulsanti verdi con una croce nera per ingrandire, il pulsante verde con un trattino per diminuire, o sulla freccia verde per le mappe adiacenti.


METAR-TAF: